Time;durP1;ratioP1;P1;durP2;ratioP2;P2;SDS_P1;SDS_P2;PMS_P1;PMS_P2;Temp;Humidity;BMP_temperature;BMP_pressure;BME280_temperature;BME280_humidity;BME280_pressure;Samples;Min_cycle;Max_cycle;Signal;HPM_P1;HPM_P2
2023/04/10 00:00:31;;;;;;;11.10;9.00;;;12.60;56.60;;;;;;5010420;28;20550;-65
2023/04/10 00:03:00;;;;;;;9.33;8.37;;;12.60;56.70;;;;;;5017587;28;20204;-65
2023/04/10 00:05:26;;;;;;;9.33;8.10;;;12.60;57.00;;;;;;5017399;28;20435;-65
2023/04/10 00:07:52;;;;;;;10.17;8.83;;;12.50;57.30;;;;;;5018353;28;20925;-65
2023/04/10 00:10:21;;;;;;;9.93;8.93;;;12.50;57.30;;;;;;5008467;28;20196;-64
2023/04/10 00:12:46;;;;;;;9.80;8.80;;;12.40;57.40;;;;;;5021946;28;20192;-65
2023/04/10 00:15:12;;;;;;;9.60;8.60;;;12.40;57.60;;;;;;5023361;28;20489;-64
2023/04/10 00:17:37;;;;;;;11.23;9.63;;;12.40;57.90;;;;;;5015677;28;20185;-64
2023/04/10 00:20:03;;;;;;;9.90;8.90;;;12.40;57.80;;;;;;5017609;28;20244;-64
2023/04/10 00:22:29;;;;;;;10.00;8.87;;;12.40;57.80;;;;;;5017238;28;20278;-64
2023/04/10 00:24:55;;;;;;;11.20;9.77;;;12.40;57.90;;;;;;5015164;28;21027;-64
2023/04/10 00:27:20;;;;;;;10.30;8.87;;;12.40;58.20;;;;;;5017541;28;20193;-65
2023/04/10 00:29:46;;;;;;;10.50;8.77;;;12.30;58.20;;;;;;5017746;28;20267;-65
2023/04/10 00:32:12;;;;;;;9.60;8.60;;;12.40;58.20;;;;;;5016557;28;20219;-65
2023/04/10 00:34:38;;;;;;;11.17;9.00;;;12.30;58.30;;;;;;5021091;28;20611;-65
2023/04/10 00:37:03;;;;;;;12.23;10.83;;;12.30;58.60;;;;;;5018663;28;21031;-65
2023/04/10 00:39:29;;;;;;;11.47;10.00;;;12.30;58.40;;;;;;5018737;28;20184;-65
2023/04/10 00:41:54;;;;;;;12.50;10.30;;;12.30;58.50;;;;;;5014487;28;20615;-64
2023/04/10 00:44:20;;;;;;;11.80;9.77;;;12.30;58.60;;;;;;5018510;28;20729;-65
2023/04/10 00:46:46;;;;;;;11.33;9.50;;;12.30;58.60;;;;;;5015337;28;20180;-65
2023/04/10 00:49:12;;;;;;;12.43;9.57;;;12.20;58.60;;;;;;5017113;28;20179;-64
2023/04/10 00:51:37;;;;;;;13.00;9.40;;;12.20;58.70;;;;;;5020808;28;20257;-65
2023/04/10 00:54:03;;;;;;;11.03;9.30;;;12.20;58.90;;;;;;5018332;28;20959;-64
2023/04/10 00:56:32;;;;;;;11.50;9.27;;;12.20;59.00;;;;;;5016867;28;20184;-64
2023/04/10 00:58:58;;;;;;;12.57;10.03;;;12.10;59.10;;;;;;5006620;28;20181;-64
2023/04/10 01:01:24;;;;;;;11.00;8.80;;;12.10;59.20;;;;;;5009088;28;20858;-64
2023/04/10 01:03:50;;;;;;;11.00;9.80;;;12.10;59.20;;;;;;5006938;28;20229;-64
2023/04/10 01:06:42;;;;;;;10.90;9.53;;;12.10;59.30;;;;;;5011126;28;21144;-64
2023/04/10 01:09:12;;;;;;;11.27;10.00;;;12.00;59.30;;;;;;5018294;28;20493;-65
2023/04/10 01:11:59;;;;;;;10.73;9.63;;;12.00;59.40;;;;;;5020191;28;20474;-65
2023/04/10 01:14:33;;;;;;;13.00;9.80;;;12.00;59.40;;;;;;5017211;28;20427;-65
2023/04/10 01:17:16;;;;;;;11.93;9.50;;;12.00;59.80;;;;;;5014922;28;20448;-64
2023/04/10 01:20:09;;;;;;;13.13;11.50;;;11.90;59.70;;;;;;5016313;28;20434;-65
2023/04/10 01:22:40;;;;;;;10.77;9.30;;;11.90;59.70;;;;;;5015657;28;20841;-64
2023/04/10 01:25:38;;;;;;;15.77;10.60;;;11.90;59.90;;;;;;5017638;28;20487;-65
2023/04/10 01:28:20;;;;;;;11.07;9.03;;;11.80;60.20;;;;;;5015243;28;20486;-64
2023/04/10 01:30:47;;;;;;;12.40;8.87;;;11.80;60.40;;;;;;5018413;28;20533;-64
2023/04/10 01:33:17;;;;;;;14.03;10.43;;;11.80;60.30;;;;;;5022215;28;20852;-64
2023/04/10 01:35:49;;;;;;;11.53;10.13;;;11.80;60.80;;;;;;5017936;28;20475;-64
2023/04/10 01:38:20;;;;;;;12.27;9.97;;;11.70;61.50;;;;;;5017306;28;20637;-65
2023/04/10 01:40:51;;;;;;;12.63;10.63;;;11.70;62.40;;;;;;5013554;28;20471;-65
2023/04/10 01:43:18;;;;;;;13.23;10.40;;;11.60;61.70;;;;;;5019943;28;20461;-64
2023/04/10 01:45:47;;;;;;;11.63;10.10;;;11.70;61.60;;;;;;5013272;28;20522;-65
2023/04/10 01:48:15;;;;;;;13.10;10.03;;;11.60;61.40;;;;;;5015123;28;20438;-64
2023/04/10 01:50:41;;;;;;;11.23;9.53;;;11.60;61.70;;;;;;5014454;28;20483;-65
2023/04/10 01:53:07;;;;;;;11.50;9.30;;;11.60;61.70;;;;;;5016152;28;20540;-64
2023/04/10 01:55:35;;;;;;;12.90;10.00;;;11.60;61.70;;;;;;5020067;28;20181;-65
2023/04/10 01:58:01;;;;;;;12.47;10.43;;;11.60;61.80;;;;;;5017815;28;20525;-65
2023/04/10 02:00:27;;;;;;;11.47;9.87;;;11.60;61.90;;;;;;5016484;28;20451;-64
2023/04/10 02:02:53;;;;;;;11.87;10.50;;;11.60;61.90;;;;;;5018399;28;21233;-65
2023/04/10 02:05:19;;;;;;;11.07;9.90;;;11.60;61.90;;;;;;5014164;28;20203;-65
2023/04/10 02:08:00;;;;;;;10.70;9.60;;;11.50;62.00;;;;;;5010298;28;20197;-64
2023/04/10 02:10:32;;;;;;;10.80;9.07;;;11.50;62.40;;;;;;5012009;28;20804;-64
2023/04/10 02:13:04;;;;;;;12.67;9.47;;;11.50;62.40;;;;;;5016850;28;20420;-65
2023/04/10 02:15:31;;;;;;;12.30;9.27;;;11.50;62.50;;;;;;5023045;28;20430;-64
2023/04/10 02:17:59;;;;;;;13.50;10.20;;;11.50;62.90;;;;;;5013703;28;20440;-64
2023/04/10 02:20:25;;;;;;;12.17;9.57;;;11.50;62.80;;;;;;5017111;28;20439;-64
2023/04/10 02:22:52;;;;;;;11.13;9.90;;;11.50;63.20;;;;;;5010210;28;20431;-64
2023/04/10 02:25:18;;;;;;;11.17;9.83;;;11.40;63.50;;;;;;5013156;28;20468;-64
2023/04/10 02:27:43;;;;;;;12.50;10.67;;;11.40;63.50;;;;;;5018480;28;20500;-64
2023/04/10 02:30:10;;;;;;;12.83;10.70;;;11.30;63.50;;;;;;5012489;28;21004;-65
2023/04/10 02:32:35;;;;;;;11.20;10.00;;;11.30;63.70;;;;;;5013275;28;20176;-65
2023/04/10 02:35:01;;;;;;;12.37;10.50;;;11.30;63.80;;;;;;5015300;28;20447;-64
2023/04/10 02:37:27;;;;;;;13.00;10.33;;;11.30;64.00;;;;;;5020610;28;20279;-64
2023/04/10 02:39:56;;;;;;;11.93;10.00;;;11.20;64.20;;;;;;5014138;28;20502;-64
2023/04/10 02:42:21;;;;;;;12.50;10.40;;;11.20;64.40;;;;;;5018826;28;20187;-64
2023/04/10 02:44:47;;;;;;;11.00;9.40;;;11.20;64.60;;;;;;5009330;28;20467;-65
2023/04/10 02:47:14;;;;;;;10.63;9.50;;;11.20;64.70;;;;;;5011715;28;20180;-64
2023/04/10 02:49:40;;;;;;;12.13;10.63;;;11.10;64.90;;;;;;5020518;28;20434;-65
2023/04/10 02:52:05;;;;;;;10.87;9.77;;;11.10;65.40;;;;;;5015549;28;20435;-64
2023/04/10 02:54:31;;;;;;;11.47;9.83;;;11.10;65.50;;;;;;5016044;28;20193;-65
2023/04/10 02:56:57;;;;;;;10.13;9.07;;;11.00;65.90;;;;;;5016447;28;20187;-64
2023/04/10 02:59:23;;;;;;;12.50;9.90;;;11.00;66.20;;;;;;5009465;28;20228;-64
2023/04/10 03:01:50;;;;;;;11.90;9.50;;;11.00;66.30;;;;;;5014458;28;20556;-65
2023/04/10 03:04:17;;;;;;;11.10;9.43;;;11.00;66.60;;;;;;5011746;28;20305;-64
2023/04/10 03:06:43;;;;;;;11.33;9.63;;;11.00;66.60;;;;;;5017836;28;20841;-64
2023/04/10 03:09:08;;;;;;;12.10;10.03;;;10.90;66.50;;;;;;5011409;28;20428;-64
2023/04/10 03:11:34;;;;;;;11.40;9.90;;;10.90;66.60;;;;;;5010610;28;20258;-64
2023/04/10 03:14:00;;;;;;;13.57;9.33;;;10.90;67.00;;;;;;5017055;28;20184;-64
2023/04/10 03:16:25;;;;;;;10.97;9.77;;;10.90;67.10;;;;;;5011761;28;20447;-64
2023/04/10 03:18:52;;;;;;;10.33;9.23;;;10.80;67.10;;;;;;5018430;28;20737;-64
2023/04/10 03:21:18;;;;;;;10.30;9.13;;;10.80;67.40;;;;;;5013376;28;20282;-65
2023/04/10 03:23:43;;;;;;;12.57;10.10;;;10.80;67.60;;;;;;5017799;28;20517;-64
2023/04/10 03:26:09;;;;;;;10.03;9.03;;;10.80;67.60;;;;;;5017060;28;20177;-64
2023/04/10 03:28:35;;;;;;;10.57;9.47;;;10.80;67.50;;;;;;5014387;28;20316;-64
2023/04/10 03:31:02;;;;;;;12.30;9.77;;;10.80;68.00;;;;;;5008566;28;20196;-65
2023/04/10 03:33:28;;;;;;;10.87;9.30;;;10.80;67.90;;;;;;5012295;28;20436;-64
2023/04/10 03:35:54;;;;;;;14.53;9.40;;;10.80;67.80;;;;;;5014045;28;20450;-64
2023/04/10 03:38:20;;;;;;;10.27;8.93;;;10.80;68.10;;;;;;5011775;28;21104;-65
2023/04/10 03:40:45;;;;;;;11.70;9.20;;;10.80;67.80;;;;;;5013705;28;20205;-65
2023/04/10 03:43:11;;;;;;;9.97;8.93;;;10.70;67.60;;;;;;5018746;28;20790;-64
2023/04/10 03:45:36;;;;;;;10.03;8.43;;;10.70;67.70;;;;;;5014509;28;20173;-64
2023/04/10 03:48:02;;;;;;;9.70;8.70;;;10.70;67.80;;;;;;5016711;28;20193;-64
2023/04/10 03:50:28;;;;;;;10.87;8.93;;;10.70;68.00;;;;;;5019621;28;20250;-64
2023/04/10 03:52:53;;;;;;;9.40;8.40;;;10.70;68.00;;;;;;5014772;28;20181;-64
2023/04/10 03:55:19;;;;;;;11.23;9.37;;;10.70;68.30;;;;;;5019295;28;20207;-64
2023/04/10 03:57:46;;;;;;;9.63;8.60;;;10.70;68.30;;;;;;5017964;28;20176;-64
2023/04/10 04:00:13;;;;;;;11.20;10.00;;;10.50;68.30;;;;;;5016527;28;20196;-64
2023/04/10 04:02:38;;;;;;;10.67;9.43;;;10.50;68.80;;;;;;5012710;28;20443;-64
2023/04/10 04:05:04;;;;;;;10.20;9.10;;;10.50;68.90;;;;;;5013702;28;20552;-64
2023/04/10 04:07:30;;;;;;;10.73;9.10;;;10.60;68.70;;;;;;5019377;28;20180;-64
2023/04/10 04:09:56;;;;;;;11.30;10.00;;;10.50;69.10;;;;;;5010686;28;21005;-64
2023/04/10 04:12:21;;;;;;;10.10;8.80;;;10.50;69.40;;;;;;5019856;28;20174;-64
2023/04/10 04:14:47;;;;;;;12.20;9.40;;;10.50;69.30;;;;;;5024733;28;20237;-64
2023/04/10 04:17:12;;;;;;;10.70;9.00;;;10.50;69.30;;;;;;5011699;28;20192;-64
2023/04/10 04:19:38;;;;;;;10.40;8.90;;;10.50;69.20;;;;;;5013043;28;20189;-64
2023/04/10 04:22:04;;;;;;;11.37;8.97;;;10.50;69.20;;;;;;5017114;28;20260;-64
2023/04/10 04:24:29;;;;;;;10.13;8.07;;;10.50;69.10;;;;;;5018430;28;20200;-64
2023/04/10 04:26:56;;;;;;;9.73;8.50;;;10.50;69.00;;;;;;5014732;28;20602;-64
2023/04/10 04:29:21;;;;;;;8.97;8.03;;;10.50;69.00;;;;;;5021019;28;20275;-64
2023/04/10 04:31:47;;;;;;;9.60;8.53;;;10.50;69.00;;;;;;5019812;28;20443;-64
2023/04/10 04:34:12;;;;;;;9.67;8.27;;;10.40;69.20;;;;;;5022582;28;20192;-64
2023/04/10 04:36:38;;;;;;;11.37;8.50;;;10.40;69.00;;;;;;5016175;28;20267;-64
2023/04/10 04:39:04;;;;;;;10.03;8.70;;;10.40;69.00;;;;;;5015377;28;20631;-63
2023/04/10 04:41:31;;;;;;;10.93;9.00;;;10.40;69.00;;;;;;5017226;28;20197;-64
2023/04/10 04:43:57;;;;;;;9.73;8.33;;;10.40;69.10;;;;;;5011184;28;20245;-64
2023/04/10 04:46:23;;;;;;;11.43;9.53;;;10.40;69.20;;;;;;5019094;28;20423;-64
2023/04/10 04:48:48;;;;;;;11.17;9.13;;;10.30;69.30;;;;;;5015203;28;20427;-64
2023/04/10 04:51:14;;;;;;;9.93;8.93;;;10.30;69.20;;;;;;5018319;28;20214;-64
2023/04/10 04:53:40;;;;;;;9.20;8.30;;;10.30;69.40;;;;;;5016401;28;20181;-64
2023/04/10 04:56:06;;;;;;;8.67;7.80;;;10.30;69.40;;;;;;5017782;28;20193;-64
2023/04/10 04:58:31;;;;;;;10.17;8.87;;;10.30;69.20;;;;;;5022547;28;20177;-64
2023/04/10 05:00:57;;;;;;;9.77;7.80;;;10.30;69.50;;;;;;5012571;28;20507;-64
2023/04/10 05:03:23;;;;;;;9.33;8.30;;;10.30;69.50;;;;;;5020559;28;20274;-63
2023/04/10 05:05:48;;;;;;;9.40;8.20;;;10.30;69.40;;;;;;5017049;28;20185;-63
2023/04/10 05:08:14;;;;;;;10.90;8.50;;;10.30;69.40;;;;;;5016684;28;20184;-63
2023/04/10 05:10:40;;;;;;;9.90;8.90;;;10.30;69.60;;;;;;5019331;28;20197;-64
2023/04/10 05:13:05;;;;;;;9.77;8.40;;;10.30;69.50;;;;;;5017626;28;20577;-64
2023/04/10 05:15:31;;;;;;;9.10;7.90;;;10.40;69.70;;;;;;5017906;28;20184;-64
2023/04/10 05:17:57;;;;;;;8.67;7.70;;;10.40;69.70;;;;;;5018312;28;20690;-64
2023/04/10 05:20:22;;;;;;;9.30;7.93;;;10.40;69.40;;;;;;5014669;28;20200;-64
2023/04/10 05:22:48;;;;;;;9.23;7.47;;;10.40;69.30;;;;;;5012908;28;20256;-64
2023/04/10 05:25:14;;;;;;;9.30;8.10;;;10.40;69.30;;;;;;5012429;28;20227;-64
2023/04/10 05:27:39;;;;;;;9.57;7.63;;;10.40;69.30;;;;;;5016926;28;20812;-64
2023/04/10 05:30:06;;;;;;;8.50;7.10;;;10.40;69.00;;;;;;5013264;28;20599;-64
2023/04/10 05:32:31;;;;;;;9.17;7.73;;;10.50;69.20;;;;;;5016194;28;20219;-64
2023/04/10 05:34:57;;;;;;;8.63;7.57;;;10.50;69.00;;;;;;5013160;28;20824;-64
2023/04/10 05:37:22;;;;;;;9.37;8.13;;;10.50;68.90;;;;;;5016342;28;20196;-64
2023/04/10 05:39:48;;;;;;;8.47;7.63;;;10.50;68.70;;;;;;5017826;28;20185;-64
2023/04/10 05:42:14;;;;;;;8.93;7.10;;;10.60;68.80;;;;;;5009792;28;20188;-65
2023/04/10 05:44:39;;;;;;;9.93;8.10;;;10.60;68.50;;;;;;5008019;28;20308;-65
2023/04/10 05:47:05;;;;;;;8.80;7.47;;;10.70;68.60;;;;;;5013042;28;20176;-65
2023/04/10 05:49:32;;;;;;;7.83;6.83;;;10.70;68.40;;;;;;5011686;28;20181;-64
2023/04/10 05:51:57;;;;;;;9.07;8.17;;;10.70;68.30;;;;;;5012497;28;20193;-64
2023/04/10 05:54:23;;;;;;;8.13;7.33;;;10.70;68.20;;;;;;5016241;28;20439;-64
2023/04/10 05:56:48;;;;;;;10.03;8.30;;;10.80;68.40;;;;;;5015433;28;20198;-64
2023/04/10 05:59:14;;;;;;;10.47;8.27;;;10.80;68.30;;;;;;5017385;28;20185;-64
2023/04/10 06:01:40;;;;;;;8.83;7.93;;;10.80;68.40;;;;;;5015570;28;20219;-64
2023/04/10 06:04:06;;;;;;;11.00;8.40;;;10.80;68.20;;;;;;5012205;28;20639;-64
2023/04/10 06:06:32;;;;;;;10.53;8.23;;;10.90;68.20;;;;;;5015903;28;20439;-64
2023/04/10 06:08:59;;;;;;;9.70;8.13;;;10.90;68.20;;;;;;5014514;28;20686;-64
2023/04/10 06:11:24;;;;;;;8.80;7.90;;;10.90;68.40;;;;;;5011784;28;20545;-64
2023/04/10 06:13:50;;;;;;;8.53;7.63;;;10.90;68.30;;;;;;5015466;28;20287;-64
2023/04/10 06:16:16;;;;;;;8.60;7.70;;;11.00;68.20;;;;;;5016912;28;20197;-64
2023/04/10 06:18:42;;;;;;;9.47;7.30;;;11.00;68.20;;;;;;5016609;28;20184;-63
2023/04/10 06:21:08;;;;;;;8.17;7.27;;;11.00;68.10;;;;;;5007487;28;20626;-64
2023/04/10 06:23:34;;;;;;;10.53;7.50;;;11.10;68.00;;;;;;5006332;28;20522;-64
2023/04/10 06:26:02;;;;;;;17.23;14.60;;;11.00;67.40;;;;;;5011725;28;20496;-65
2023/04/10 06:28:27;;;;;;;9.80;8.40;;;11.10;67.40;;;;;;5015604;28;20433;-64
2023/04/10 06:30:53;;;;;;;9.30;8.30;;;11.10;67.10;;;;;;5014067;28;20983;-64
2023/04/10 06:33:19;;;;;;;9.77;8.07;;;11.20;67.00;;;;;;5019421;28;20288;-64
2023/04/10 06:35:45;;;;;;;7.70;6.93;;;11.20;66.80;;;;;;5017924;28;20447;-64
2023/04/10 06:38:11;;;;;;;9.63;6.50;;;11.20;66.30;;;;;;5014682;28;20552;-64
2023/04/10 06:40:37;;;;;;;9.53;7.60;;;11.20;66.30;;;;;;5031105;28;20204;-64
2023/04/10 06:43:02;;;;;;;8.90;7.37;;;11.20;66.40;;;;;;5016955;28;20740;-64
2023/04/10 06:45:28;;;;;;;12.90;7.43;;;11.30;66.50;;;;;;5015924;28;20818;-64
2023/04/10 06:47:53;;;;;;;9.30;7.10;;;11.30;66.40;;;;;;5012967;28;20239;-64
2023/04/10 06:50:19;;;;;;;9.20;7.80;;;11.30;66.20;;;;;;5015106;28;20638;-64
2023/04/10 06:52:46;;;;;;;8.07;7.27;;;11.40;66.10;;;;;;5011249;28;20182;-64
2023/04/10 06:55:11;;;;;;;7.20;6.50;;;11.40;65.80;;;;;;5014228;28;20854;-64
2023/04/10 06:57:38;;;;;;;7.20;6.43;;;11.40;65.80;;;;;;5010333;28;20438;-64
2023/04/10 07:00:04;;;;;;;8.27;7.40;;;11.50;66.00;;;;;;5014751;28;20213;-63
2023/04/10 07:02:30;;;;;;;7.77;6.90;;;11.50;66.00;;;;;;5015873;28;20447;-64
2023/04/10 07:04:55;;;;;;;9.37;8.37;;;11.60;66.10;;;;;;5010476;28;20467;-64
2023/04/10 07:07:21;;;;;;;10.10;6.90;;;11.60;65.90;;;;;;5013395;28;20199;-63
2023/04/10 07:09:47;;;;;;;8.63;7.33;;;11.70;65.50;;;;;;5019681;28;20353;-63
2023/04/10 07:12:13;;;;;;;7.57;6.77;;;11.70;65.50;;;;;;5012218;28;20447;-65
2023/04/10 07:14:38;;;;;;;8.67;7.80;;;11.80;65.30;;;;;;5013910;28;20185;-63
2023/04/10 07:17:04;;;;;;;8.40;7.40;;;11.80;65.10;;;;;;5007139;28;20747;-63
2023/04/10 07:19:30;;;;;;;7.20;5.87;;;11.90;64.80;;;;;;5016544;28;20596;-63
2023/04/10 07:21:56;;;;;;;7.23;6.50;;;11.90;64.50;;;;;;5008918;28;20647;-63
2023/04/10 07:24:22;;;;;;;7.73;6.63;;;12.00;64.50;;;;;;5014709;28;20206;-64
2023/04/10 07:26:48;;;;;;;6.47;5.87;;;12.00;64.40;;;;;;5017392;28;20457;-64
2023/04/10 07:29:14;;;;;;;7.47;6.60;;;12.10;64.00;;;;;;5016433;28;20428;-64
2023/04/10 07:31:40;;;;;;;7.60;6.80;;;12.20;63.80;;;;;;5015942;28;20293;-64
2023/04/10 07:34:06;;;;;;;8.07;6.77;;;12.20;63.40;;;;;;5012823;28;20475;-63
2023/04/10 07:36:32;;;;;;;7.60;6.70;;;12.30;63.30;;;;;;5016322;28;20939;-64
2023/04/10 07:38:57;;;;;;;6.70;6.10;;;12.30;62.70;;;;;;5017054;28;20419;-63
2023/04/10 07:41:23;;;;;;;7.13;6.43;;;12.30;62.10;;;;;;5011543;28;20232;-64
2023/04/10 07:43:49;;;;;;;7.23;6.07;;;12.40;62.10;;;;;;5016545;28;20653;-64
2023/04/10 07:46:16;;;;;;;6.87;5.80;;;12.50;61.90;;;;;;5015991;28;20176;-63
2023/04/10 07:48:43;;;;;;;7.20;6.30;;;12.60;61.40;;;;;;5013283;28;20184;-63
2023/04/10 07:51:09;;;;;;;6.50;5.90;;;12.60;61.30;;;;;;5002523;28;20449;-63
2023/04/10 07:53:35;;;;;;;6.67;6.00;;;12.70;61.60;;;;;;5009356;28;20439;-63
2023/04/10 07:56:01;;;;;;;6.50;5.80;;;12.70;61.20;;;;;;5013649;28;20631;-63
2023/04/10 07:58:27;;;;;;;6.10;5.50;;;12.80;61.20;;;;;;5012822;28;21025;-63
2023/04/10 08:00:53;;;;;;;7.93;7.13;;;12.90;61.10;;;;;;5014102;28;20497;-63
2023/04/10 08:03:18;;;;;;;6.27;5.20;;;13.00;60.70;;;;;;5018494;28;20855;-62
2023/04/10 08:05:44;;;;;;;6.80;5.90;;;13.10;60.20;;;;;;5011931;28;20192;-63
2023/04/10 08:08:10;;;;;;;6.30;5.67;;;13.20;59.40;;;;;;5017386;28;20188;-62
2023/04/10 08:10:37;;;;;;;5.63;5.13;;;13.20;59.80;;;;;;5013356;28;20212;-63
2023/04/10 08:13:03;;;;;;;7.70;5.90;;;13.30;60.20;;;;;;5020124;28;20185;-63
2023/04/10 08:15:28;;;;;;;5.97;5.40;;;13.40;59.90;;;;;;5021807;28;20458;-63
2023/04/10 08:17:54;;;;;;;6.20;5.60;;;13.50;59.30;;;;;;5017227;28;20192;-64
2023/04/10 08:20:19;;;;;;;6.43;5.80;;;13.60;58.80;;;;;;5012214;28;20220;-63
2023/04/10 08:22:45;;;;;;;6.17;5.57;;;13.60;58.50;;;;;;5007263;28;20263;-63
2023/04/10 08:25:11;;;;;;;6.57;5.70;;;13.70;58.50;;;;;;5018540;28;20232;-63
2023/04/10 08:27:36;;;;;;;7.27;5.40;;;13.70;58.40;;;;;;5013656;28;20177;-63
2023/04/10 08:30:02;;;;;;;5.50;5.00;;;13.80;58.10;;;;;;5012554;28;20205;-62
2023/04/10 08:32:29;;;;;;;5.90;5.30;;;13.90;57.30;;;;;;5016030;28;20639;-63
2023/04/10 08:34:55;;;;;;;6.17;5.30;;;13.90;56.90;;;;;;5015946;28;20451;-63
2023/04/10 08:37:20;;;;;;;7.13;6.37;;;13.90;57.20;;;;;;5017818;28;20449;-63
2023/04/10 08:39:46;;;;;;;5.50;4.57;;;14.00;57.20;;;;;;5018917;28;20185;-64
2023/04/10 08:42:12;;;;;;;6.00;4.90;;;14.10;57.10;;;;;;5013168;28;20188;-63
2023/04/10 08:44:38;;;;;;;6.23;5.60;;;14.20;56.60;;;;;;5018695;28;20204;-64
2023/04/10 08:47:05;;;;;;;7.93;7.13;;;14.20;57.10;;;;;;5013503;28;20169;-64
2023/04/10 08:49:43;;;;;;;5.23;4.73;;;14.30;56.40;;;;;;5018689;28;21106;-64
2023/04/10 08:52:15;;;;;;;6.60;5.03;;;14.40;55.80;;;;;;5017411;28;20430;-64
2023/04/10 08:54:46;;;;;;;6.17;5.43;;;14.50;55.60;;;;;;5017472;28;20423;-63
2023/04/10 08:57:19;;;;;;;5.03;4.53;;;14.50;55.20;;;;;;5016675;28;20427;-63
2023/04/10 08:59:50;;;;;;;5.43;4.90;;;14.60;54.60;;;;;;5016969;28;20572;-64
2023/04/10 09:02:16;;;;;;;5.60;4.77;;;14.70;54.60;;;;;;5017902;28;20956;-63
2023/04/10 09:04:48;;;;;;;6.67;6.07;;;14.80;54.70;;;;;;5018945;28;20471;-64
2023/04/10 09:07:13;;;;;;;5.17;4.60;;;14.90;54.40;;;;;;5012797;28;20321;-63
2023/04/10 09:09:39;;;;;;;5.50;4.90;;;15.00;54.20;;;;;;5011517;28;20432;-64
2023/04/10 09:12:05;;;;;;;5.10;4.60;;;15.10;54.10;;;;;;5017213;28;20180;-64
2023/04/10 09:14:35;;;;;;;5.40;4.33;;;15.20;53.20;;;;;;5016468;28;20952;-64
2023/04/10 09:17:15;;;;;;;4.70;4.30;;;15.30;53.10;;;;;;5017055;28;20984;-64
2023/04/10 09:19:41;;;;;;;4.37;3.97;;;15.40;52.50;;;;;;5018304;28;20431;-64
2023/04/10 09:22:07;;;;;;;5.20;4.80;;;15.50;52.30;;;;;;5016160;28;20446;-64
2023/04/10 09:24:37;;;;;;;4.53;4.13;;;15.60;51.80;;;;;;5012674;28;20501;-64
2023/04/10 09:27:03;;;;;;;4.50;4.10;;;15.70;51.50;;;;;;5021185;28;20466;-64
2023/04/10 09:29:58;;;;;;;4.37;3.97;;;15.80;51.50;;;;;;5014139;28;20439;-64
2023/04/10 09:32:39;;;;;;;4.83;4.27;;;15.90;50.60;;;;;;5013853;28;20443;-63
2023/04/10 09:35:07;;;;;;;4.73;4.33;;;16.20;49.90;;;;;;5015526;28;20430;-64
2023/04/10 09:37:34;;;;;;;4.30;3.90;;;16.30;50.20;;;;;;5009163;28;20454;-63
2023/04/10 09:40:00;;;;;;;4.40;4.00;;;16.40;49.60;;;;;;5014654;28;20559;-64
2023/04/10 09:42:36;;;;;;;4.33;3.93;;;16.50;49.20;;;;;;5015140;28;20514;-64
2023/04/10 09:45:02;;;;;;;4.43;3.60;;;16.70;49.10;;;;;;5017468;28;20470;-63
2023/04/10 09:47:29;;;;;;;4.10;3.70;;;16.90;48.40;;;;;;5018866;28;21661;-63
2023/04/10 09:50:01;;;;;;;4.23;3.83;;;17.00;48.40;;;;;;5019013;28;20447;-64
2023/04/10 09:52:29;;;;;;;3.80;3.50;;;17.20;48.00;;;;;;5014263;28;20454;-64
2023/04/10 09:54:57;;;;;;;4.10;3.70;;;17.20;47.30;;;;;;5011363;28;20469;-64
2023/04/10 09:57:26;;;;;;;4.37;3.97;;;17.30;47.10;;;;;;5017447;28;20436;-64
2023/04/10 09:59:56;;;;;;;4.27;3.90;;;17.50;47.10;;;;;;5016832;28;20498;-64
2023/04/10 10:02:25;;;;;;;4.47;4.07;;;17.60;47.00;;;;;;5010006;28;20482;-64
2023/04/10 10:04:51;;;;;;;4.33;3.93;;;17.70;47.20;;;;;;5014948;28;20542;-64
2023/04/10 10:07:21;;;;;;;3.97;3.60;;;17.80;46.00;;;;;;5011923;28;21467;-65
2023/04/10 10:09:49;;;;;;;4.87;3.90;;;17.80;45.70;;;;;;5011843;28;20496;-65
2023/04/10 10:12:18;;;;;;;4.13;3.80;;;17.80;45.20;;;;;;5016661;28;20439;-65
2023/04/10 10:14:59;;;;;;;4.10;3.70;;;17.80;45.10;;;;;;5014371;28;20443;-65
2023/04/10 10:17:31;;;;;;;4.00;3.67;;;17.70;44.50;;;;;;5015564;28;20843;-67
2023/04/10 10:20:03;;;;;;;4.37;3.97;;;17.70;44.80;;;;;;5013465;28;20450;-64
2023/04/10 10:22:30;;;;;;;4.10;3.70;;;17.60;44.70;;;;;;5012084;28;20439;-64
2023/04/10 10:24:58;;;;;;;4.90;4.43;;;17.60;45.30;;;;;;5014676;28;20458;-65
2023/04/10 10:27:25;;;;;;;4.40;4.00;;;17.60;45.80;;;;;;5014296;28;20439;-65
2023/04/10 10:29:52;;;;;;;4.90;4.20;;;17.50;46.40;;;;;;5014135;28;20436;-64
2023/04/10 10:32:19;;;;;;;4.37;3.97;;;17.50;46.90;;;;;;5013814;28;22404;-65
2023/04/10 10:34:46;;;;;;;5.40;4.30;;;17.60;46.40;;;;;;5017813;28;20435;-66
2023/04/10 10:37:12;;;;;;;11.13;4.40;;;17.70;46.50;;;;;;5018960;28;20428;-65
2023/04/10 10:39:56;;;;;;;4.70;4.30;;;17.70;46.40;;;;;;5016405;28;20447;-64
2023/04/10 10:42:34;;;;;;;5.83;3.93;;;17.60;46.10;;;;;;5015838;28;20184;-65
2023/04/10 10:45:08;;;;;;;6.07;4.83;;;17.50;46.20;;;;;;5016960;28;20466;-65
2023/04/10 10:47:43;;;;;;;10.20;4.87;;;17.50;46.10;;;;;;5014460;28;20478;-65
2023/04/10 10:50:09;;;;;;;8.43;6.53;;;17.60;45.50;;;;;;5015846;28;20435;-65
2023/04/10 10:52:48;;;;;;;5.67;4.83;;;17.70;45.70;;;;;;5015038;28;20442;-65
2023/04/10 10:55:27;;;;;;;4.80;4.07;;;17.70;46.00;;;;;;5014290;28;20483;-65
2023/04/10 10:57:54;;;;;;;4.67;4.17;;;17.80;45.90;;;;;;5014446;28;20477;-64
2023/04/10 11:00:21;;;;;;;4.70;4.30;;;17.80;46.30;;;;;;5008930;28;20481;-64
2023/04/10 11:03:06;;;;;;;3.80;3.50;;;17.90;47.30;;;;;;5016324;28;20536;-65
2023/04/10 11:06:02;;;;;;;4.53;4.13;;;17.90;45.60;;;;;;5010287;28;20838;-65
2023/04/10 11:08:51;;;;;;;4.47;4.00;;;17.90;45.70;;;;;;5012697;28;20749;-65
2023/04/10 11:11:26;;;;;;;9.23;4.27;;;18.00;45.40;;;;;;5012707;28;20474;-64
2023/04/10 11:13:57;;;;;;;4.73;4.27;;;18.30;45.30;;;;;;5013913;28;20427;-64
2023/04/10 11:16:40;;;;;;;4.20;3.80;;;18.40;44.20;;;;;;5016936;28;20913;-65
2023/04/10 11:19:07;;;;;;;4.53;4.13;;;18.50;44.30;;;;;;5014211;28;21096;-64
2023/04/10 11:21:34;;;;;;;4.57;4.17;;;18.50;44.60;;;;;;5013207;28;20483;-64
2023/04/10 11:23:59;;;;;;;4.60;4.10;;;18.40;44.60;;;;;;5010660;28;20553;-65
2023/04/10 11:26:35;;;;;;;5.07;4.67;;;18.50;44.90;;;;;;5014850;28;21043;-65
2023/04/10 11:29:02;;;;;;;4.50;4.10;;;18.70;45.20;;;;;;5013919;28;20187;-65
2023/04/10 11:31:28;;;;;;;5.00;4.60;;;18.90;44.00;;;;;;5013676;28;20512;-65
2023/04/10 11:33:59;;;;;;;6.00;4.30;;;19.10;44.50;;;;;;5015669;28;20423;-65
2023/04/10 11:36:26;;;;;;;5.27;4.37;;;19.30;44.40;;;;;;5015171;28;20442;-65
2023/04/10 11:39:08;;;;;;;4.83;4.27;;;19.50;43.20;;;;;;5013240;28;20496;-65
2023/04/10 11:41:36;;;;;;;5.40;4.90;;;19.70;43.50;;;;;;5012368;28;20489;-65
2023/04/10 11:44:03;;;;;;;4.70;4.30;;;20.00;43.30;;;;;;5014460;28;20509;-65
2023/04/10 11:46:30;;;;;;;4.70;4.20;;;20.20;43.00;;;;;;5012503;28;20423;-65
2023/04/10 11:49:00;;;;;;;4.50;4.10;;;20.30;42.10;;;;;;5013859;28;20412;-65
2023/04/10 11:51:27;;;;;;;5.13;4.17;;;20.50;42.20;;;;;;5014765;28;21887;-65
2023/04/10 11:54:07;;;;;;;5.27;4.77;;;20.70;41.60;;;;;;5014851;28;20944;-65
2023/04/10 11:56:33;;;;;;;4.67;4.27;;;21.00;42.10;;;;;;5016286;28;20480;-66
2023/04/10 11:58:59;;;;;;;6.33;4.10;;;21.20;42.20;;;;;;5009525;28;21000;-66
2023/04/10 12:01:25;;;;;;;4.27;3.87;;;21.50;42.00;;;;;;5012162;28;20566;-66
2023/04/10 12:03:51;;;;;;;4.10;3.80;;;21.80;41.30;;;;;;5015508;28;20211;-66
2023/04/10 12:06:18;;;;;;;4.43;4.13;;;22.20;40.70;;;;;;5017099;28;20233;-66
2023/04/10 12:08:49;;;;;;;5.17;4.67;;;22.60;40.70;;;;;;5018202;28;20806;-66
2023/04/10 12:11:19;;;;;;;4.43;3.93;;;23.00;40.20;;;;;;5015157;28;20551;-67
2023/04/10 12:13:45;;;;;;;4.50;4.10;;;23.30;40.80;;;;;;5013371;28;20772;-64
2023/04/10 12:16:11;;;;;;;4.80;4.40;;;23.20;38.80;;;;;;5015041;28;20451;-65
2023/04/10 12:18:37;;;;;;;4.90;4.50;;;23.50;39.30;;;;;;5018507;28;20610;-64
2023/04/10 12:21:04;;;;;;;5.20;4.80;;;24.10;39.20;;;;;;5012997;28;20531;-64
2023/04/10 12:23:30;;;;;;;5.40;4.90;;;24.60;39.10;;;;;;5012856;28;20454;-64
2023/04/10 12:26:10;;;;;;;4.87;4.47;;;25.20;38.60;;;;;;5010408;28;20937;-64
2023/04/10 12:28:37;;;;;;;6.20;5.70;;;25.60;37.20;;;;;;5008801;28;20230;-65
2023/04/10 12:31:03;;;;;;;4.60;4.20;;;25.30;36.40;;;;;;5011376;28;20984;-64
2023/04/10 12:33:29;;;;;;;4.53;4.13;;;25.00;37.20;;;;;;5018859;28;20454;-65
2023/04/10 12:35:55;;;;;;;3.90;3.60;;;24.70;36.80;;;;;;5025168;28;20493;-65
2023/04/10 12:38:43;;;;;;;4.90;4.50;;;24.50;36.40;;;;;;5018330;28;20184;-64
2023/04/10 12:41:10;;;;;;;4.60;4.20;;;24.60;37.10;;;;;;5011328;28;20207;-65
2023/04/10 12:43:38;;;;;;;4.37;3.97;;;24.80;37.00;;;;;;5011154;28;20439;-64
2023/04/10 12:46:06;;;;;;;4.50;4.10;;;24.90;36.50;;;;;;5011119;28;20463;-64